Time;durP1;ratioP1;P1;durP2;ratioP2;P2;SDS_P1;SDS_P2;PMS_P1;PMS_P2;Temp;Humidity;BMP_temperature;BMP_pressure;BME280_temperature;BME280_humidity;BME280_pressure;Samples;Min_cycle;Max_cycle;Signal;HPM_P1;HPM_P2
2021/01/20 00:00:01;;;;;;;154.40;66.90;;;;;;;-15.19;53.67;101637.76;1754405;80;20967;-74
2021/01/20 00:02:31;;;;;;;157.67;64.22;;;;;;;-15.22;53.61;101640.97;1754280;80;21165;-74
2021/01/20 00:04:59;;;;;;;149.68;64.65;;;;;;;-15.28;53.65;101638.94;1754200;80;20971;-73
2021/01/20 00:07:27;;;;;;;149.40;64.47;;;;;;;-15.33;53.73;101644.48;1754367;80;21615;-74
2021/01/20 00:09:55;;;;;;;153.23;62.98;;;;;;;-15.36;53.77;101648.94;1754242;80;21042;-75
2021/01/20 00:12:22;;;;;;;147.70;65.37;;;;;;;-15.36;53.73;101643.02;1753024;80;20947;-74
2021/01/20 00:14:52;;;;;;;127.90;56.98;;;;;;;-15.36;53.73;101646.42;1780603;79;20935;-74
2021/01/20 00:17:20;;;;;;;147.72;60.88;;;;;;;-15.30;53.89;101647.16;1754356;80;21385;-74
2021/01/20 00:20:41;;;;;;;152.78;64.37;;;;;;;-15.19;53.79;101644.91;1820216;77;22616;-75
2021/01/20 00:23:08;;;;;;;150.22;63.13;;;;;;;-15.20;53.45;101639.41;1728822;81;20975;-74
2021/01/20 00:25:37;;;;;;;139.43;61.02;;;;;;;-15.18;53.04;101644.52;1737971;81;22150;-75
2021/01/20 00:28:05;;;;;;;128.05;55.43;;;;;;;-15.23;52.97;101637.95;1728824;81;20990;-75
2021/01/20 00:30:33;;;;;;;126.80;51.98;;;;;;;-15.28;53.24;101648.13;1738128;81;21073;-76
2021/01/20 00:33:02;;;;;;;124.20;52.20;;;;;;;-15.39;53.40;101646.61;1728852;81;20951;-76
2021/01/20 00:35:30;;;;;;;129.70;56.42;;;;;;;-15.53;53.63;101645.38;1738063;81;20970;-75
2021/01/20 00:37:58;;;;;;;173.10;70.17;;;;;;;-15.62;53.69;101638.52;1728720;81;21103;-73
2021/01/20 00:40:26;;;;;;;152.43;64.03;;;;;;;-15.69;53.91;101646.07;1737948;81;21021;-74
2021/01/20 00:42:54;;;;;;;159.50;69.12;;;;;;;-15.75;53.91;101638.57;1728862;81;21054;-73
2021/01/20 00:45:22;;;;;;;149.50;62.45;;;;;;;-15.81;54.15;101633.16;1737866;81;20986;-75
2021/01/20 00:47:50;;;;;;;126.92;55.33;;;;;;;-15.81;54.47;101635.27;1728864;81;21042;-74
2021/01/20 00:50:19;;;;;;;106.17;48.05;;;;;;;-15.74;54.61;101643.70;1737907;81;21163;-74
2021/01/20 00:52:46;;;;;;;119.30;51.53;;;;;;;-15.66;54.82;101646.64;1728696;81;21042;-74
2021/01/20 00:55:15;;;;;;;111.17;50.58;;;;;;;-15.58;54.79;101648.36;1737891;81;21388;-73
2021/01/20 00:57:45;;;;;;;125.40;53.52;;;;;;;-15.52;54.38;101642.47;1738034;81;21045;-75
2021/01/20 01:00:13;;;;;;;110.92;48.17;;;;;;;-15.53;54.13;101652.91;1756530;81;21045;-74
2021/01/20 01:02:43;;;;;;;131.63;53.10;;;;;;;-15.55;54.00;101653.20;1737734;81;22444;-73
2021/01/20 01:05:12;;;;;;;122.02;52.78;;;;;;;-15.58;53.85;101655.55;1728720;81;20979;-75
2021/01/20 01:07:42;;;;;;;115.37;52.43;;;;;;;-15.60;53.71;101655.83;1737910;81;20914;-74
2021/01/20 01:10:11;;;;;;;108.72;49.15;;;;;;;-15.64;53.85;101655.55;1728827;81;20958;-74
2021/01/20 01:12:46;;;;;;;127.95;53.50;;;;;;;-15.74;53.91;101661.29;1710730;81;21010;-74
2021/01/20 01:15:14;;;;;;;146.07;61.40;;;;;;;-15.82;53.95;101660.33;1738012;81;21194;-76
2021/01/20 01:17:42;;;;;;;151.57;58.87;;;;;;;-15.87;53.75;101662.55;1728778;81;20963;-74
2021/01/20 01:20:15;;;;;;;158.68;63.33;;;;;;;-15.89;53.84;101666.61;1716984;82;20920;-73
2021/01/20 01:22:43;;;;;;;147.13;57.78;;;;;;;-15.92;53.92;101663.87;1726624;81;21618;-74
2021/01/20 01:25:14;;;;;;;140.95;56.98;;;;;;;-15.94;54.06;101666.67;1696942;82;21039;-74
2021/01/20 01:27:43;;;;;;;139.22;56.70;;;;;;;-15.92;54.14;101660.11;1725948;80;21163;-74
2021/01/20 01:30:13;;;;;;;134.20;54.25;;;;;;;-15.88;54.26;101659.53;1720635;82;21140;-73
2021/01/20 01:32:42;;;;;;;130.78;53.50;;;;;;;-15.86;54.12;101664.27;1725718;81;20931;-73
2021/01/20 01:35:12;;;;;;;131.00;53.15;;;;;;;-15.84;54.19;101660.61;1719974;82;20982;-74
2021/01/20 01:37:42;;;;;;;115.40;51.53;;;;;;;-15.81;54.20;101660.40;1725391;81;20961;-74
2021/01/20 01:40:11;;;;;;;124.53;52.85;;;;;;;-15.75;54.19;101667.47;1720188;82;22209;-74
2021/01/20 01:42:57;;;;;;;151.75;61.48;;;;;;;-15.71;54.40;101655.58;1725665;81;21566;-74
2021/01/20 01:45:26;;;;;;;157.47;65.95;;;;;;;-15.68;54.20;101655.73;1720142;82;20974;-76
2021/01/20 01:47:55;;;;;;;162.75;70.92;;;;;;;-15.70;53.87;101658.53;1725678;81;21007;-73
2021/01/20 01:50:23;;;;;;;185.48;72.20;;;;;;;-15.74;53.88;101663.80;1726051;81;21061;-72
2021/01/20 01:52:52;;;;;;;181.05;71.30;;;;;;;-15.75;53.83;101663.70;1720323;82;21261;-72
2021/01/20 01:55:39;;;;;;;150.45;62.43;;;;;;;-15.74;53.85;101667.94;1725704;81;20982;-74
2021/01/20 01:58:12;;;;;;;157.95;63.10;;;;;;;-15.75;53.64;101666.21;1718395;81;20971;-73
2021/01/20 02:00:42;;;;;;;153.75;64.97;;;;;;;-15.77;53.62;101674.91;1725775;81;20950;-74
2021/01/20 02:03:14;;;;;;;165.68;64.12;;;;;;;-15.75;53.49;101668.72;1725490;81;21061;-73
2021/01/20 02:05:44;;;;;;;165.43;67.67;;;;;;;-15.74;53.42;101670.09;1720688;82;21147;-73
2021/01/20 02:08:12;;;;;;;184.10;73.92;;;;;;;-15.75;53.33;101664.95;1728750;81;20931;-72
2021/01/20 02:10:44;;;;;;;194.65;80.80;;;;;;;-15.76;53.20;101666.97;1722886;81;21074;-72
2021/01/20 02:13:48;;;;;;;166.15;76.70;;;;;;;-15.75;53.24;101673.75;1727648;81;20966;-74
2021/01/20 02:16:30;;;;;;;148.32;64.27;;;;;;;-15.75;53.30;101673.36;1614336;87;21015;-73
2021/01/20 02:19:00;;;;;;;141.95;59.48;;;;;;;-15.72;53.28;101679.82;1623765;87;21037;-74
2021/01/20 02:21:38;;;;;;;138.88;55.92;;;;;;;-15.70;53.02;101692.45;1595729;88;21026;-74
2021/01/20 02:24:28;;;;;;;135.32;53.35;;;;;;;-15.73;53.12;101687.28;1667642;84;21030;-73
2021/01/20 02:27:11;;;;;;;140.10;51.37;;;;;;;-15.69;53.24;101690.05;1693087;84;21041;-74
2021/01/20 02:30:10;;;;;;;140.88;57.53;;;;;;;-15.59;53.08;101694.39;1852373;77;22806;-74
2021/01/20 02:32:43;;;;;;;135.78;56.70;;;;;;;-15.61;52.74;101699.71;1769948;78;20942;-73
2021/01/20 02:35:11;;;;;;;148.78;57.27;;;;;;;-15.68;52.46;101703.09;1720749;82;21176;-75
2021/01/20 02:37:39;;;;;;;138.50;57.90;;;;;;;-15.73;52.56;101701.97;1788593;78;21373;-74
2021/01/20 02:40:11;;;;;;;162.60;66.92;;;;;;;-15.77;52.81;101707.96;1711247;82;20963;-74
2021/01/20 02:42:45;;;;;;;131.15;58.55;;;;;;;-15.82;52.97;101705.55;1788000;78;21376;-72
2021/01/20 02:45:15;;;;;;;128.00;48.87;;;;;;;-15.94;53.39;101709.38;1721352;82;21495;-73
2021/01/20 02:47:46;;;;;;;114.67;52.30;;;;;;;-16.02;53.74;101708.91;1788605;78;21002;-72
2021/01/20 02:50:16;;;;;;;142.20;60.48;;;;;;;-16.05;53.97;101704.91;1720685;82;21010;-74
2021/01/20 02:52:58;;;;;;;162.88;66.40;;;;;;;-16.05;54.00;101714.09;1733418;78;21034;-74
2021/01/20 02:55:55;;;;;;;153.62;67.42;;;;;;;-16.00;53.93;101718.67;1720592;81;21058;-74
2021/01/20 02:58:38;;;;;;;161.57;64.47;;;;;;;-15.95;53.92;101712.28;1788015;78;21025;-74
2021/01/20 03:01:24;;;;;;;151.50;63.78;;;;;;;-15.88;53.86;101719.83;1788098;78;21068;-74
2021/01/20 03:03:53;;;;;;;170.43;69.00;;;;;;;-15.84;53.74;101713.38;1690498;82;20971;-75
2021/01/20 03:06:21;;;;;;;164.97;67.25;;;;;;;-15.83;53.30;101711.33;1788067;78;20970;-74
2021/01/20 03:08:51;;;;;;;176.18;75.52;;;;;;;-15.87;53.26;101714.05;1720803;82;20995;-74
2021/01/20 03:11:18;;;;;;;162.85;69.20;;;;;;;-15.85;53.14;101714.98;1788208;78;20986;-74
2021/01/20 03:13:45;;;;;;;158.37;71.85;;;;;;;-15.82;53.11;101714.34;1720694;82;21012;-73
2021/01/20 03:16:13;;;;;;;163.68;71.57;;;;;;;-15.79;53.12;101719.16;1788083;78;21424;-74
2021/01/20 03:18:41;;;;;;;159.15;65.22;;;;;;;-15.75;53.00;101717.73;1719210;82;20966;-76
2021/01/20 03:21:08;;;;;;;160.05;60.38;;;;;;;-15.70;52.96;101710.05;1788037;78;21034;-74
2021/01/20 03:23:36;;;;;;;123.67;53.08;;;;;;;-15.68;52.64;101711.02;1720650;82;20959;-74
2021/01/20 03:26:04;;;;;;;121.10;50.92;;;;;;;-15.70;52.25;101710.91;1787931;78;21550;-74
2021/01/20 03:28:32;;;;;;;113.92;53.92;;;;;;;-15.79;52.13;101716.65;1781900;80;20958;-73
2021/01/20 03:31:00;;;;;;;135.72;57.10;;;;;;;-15.86;52.22;101714.52;1775384;80;20950;-74
2021/01/20 03:33:28;;;;;;;140.73;61.98;;;;;;;-15.95;52.37;101718.56;1775398;80;21018;-75
2021/01/20 03:35:56;;;;;;;125.65;51.95;;;;;;;-16.02;52.49;101711.80;1775412;80;20959;-72
2021/01/20 03:38:24;;;;;;;116.28;51.65;;;;;;;-16.06;52.62;101706.09;1775516;80;22199;-76
2021/01/20 03:40:53;;;;;;;119.40;52.03;;;;;;;-16.09;52.82;101709.28;1774970;80;21529;-73
2021/01/20 03:43:20;;;;;;;115.03;50.30;;;;;;;-16.06;53.27;101710.73;1774822;80;20958;-73
2021/01/20 03:45:48;;;;;;;132.27;53.02;;;;;;;-16.02;53.26;101710.16;1774896;80;21587;-74
2021/01/20 03:48:16;;;;;;;107.20;47.88;;;;;;;-16.00;53.28;101716.16;1774895;80;20998;-73
2021/01/20 03:50:44;;;;;;;126.90;49.95;;;;;;;-15.93;53.30;101719.94;1775150;80;21531;-73
2021/01/20 03:53:12;;;;;;;122.65;49.70;;;;;;;-15.88;52.99;101715.67;1775256;80;20903;-73
2021/01/20 03:55:39;;;;;;;115.25;50.83;;;;;;;-15.82;53.01;101717.72;1775745;80;20947;-72
2021/01/20 03:58:07;;;;;;;103.02;46.28;;;;;;;-15.77;53.05;101716.75;1778800;79;21531;-73
2021/01/20 04:00:35;;;;;;;120.00;49.08;;;;;;;-15.72;53.12;101703.70;1778704;80;20954;-72
2021/01/20 04:03:04;;;;;;;97.65;44.23;;;;;;;-15.66;53.18;101705.70;1777659;80;21177;-74
2021/01/20 04:05:46;;;;;;;126.15;52.67;;;;;;;-15.60;53.32;101706.10;1771842;80;21046;-75
2021/01/20 04:08:14;;;;;;;111.17;47.93;;;;;;;-15.57;52.91;101710.05;1775658;80;21053;-73
2021/01/20 04:10:43;;;;;;;116.28;49.38;;;;;;;-15.59;52.86;101714.50;1775414;80;20907;-74
2021/01/20 04:13:11;;;;;;;109.30;47.33;;;;;;;-15.61;52.94;101715.66;1775067;80;21543;-74
2021/01/20 04:15:39;;;;;;;111.68;50.40;;;;;;;-15.65;53.19;101721.25;1774911;80;21129;-75
2021/01/20 04:18:06;;;;;;;99.55;45.55;;;;;;;-15.66;53.33;101727.06;1774811;78;21010;-75
2021/01/20 04:20:36;;;;;;;132.37;60.60;;;;;;;-15.64;53.73;101725.52;1774983;80;21496;-74
2021/01/20 04:23:03;;;;;;;123.70;55.88;;;;;;;-15.67;53.48;101735.36;1774764;80;20975;-72
2021/01/20 04:25:31;;;;;;;114.45;52.67;;;;;;;-15.67;53.68;101732.84;1774886;80;21571;-74
2021/01/20 04:27:59;;;;;;;106.50;49.90;;;;;;;-15.65;53.83;101732.56;1774971;80;21167;-75
2021/01/20 04:30:27;;;;;;;90.90;44.03;;;;;;;-15.60;54.00;101729.98;1774921;78;21038;-74
2021/01/20 04:32:56;;;;;;;96.25;42.43;;;;;;;-15.53;54.11;101729.59;1774937;80;21034;-75
2021/01/20 04:35:24;;;;;;;100.82;47.10;;;;;;;-15.46;54.19;101732.10;1774961;80;20938;-73
2021/01/20 04:37:52;;;;;;;99.05;45.08;;;;;;;-15.40;53.96;101733.75;1774879;78;20911;-74
2021/01/20 04:40:20;;;;;;;130.20;52.35;;;;;;;-15.39;53.76;101735.87;1774894;80;21456;-76
2021/01/20 04:42:48;;;;;;;104.97;48.25;;;;;;;-15.40;53.43;101745.42;1774941;80;21571;-74
2021/01/20 04:45:17;;;;;;;118.08;54.23;;;;;;;-15.42;53.05;101745.75;1774825;80;20954;-75
2021/01/20 04:47:44;;;;;;;108.42;50.85;;;;;;;-15.43;52.83;101748.63;1749815;80;21579;-75
2021/01/20 04:50:12;;;;;;;145.72;62.20;;;;;;;-15.41;52.88;101752.50;1734402;80;21385;-76
2021/01/20 04:52:43;;;;;;;163.80;72.27;;;;;;;-15.40;52.95;101756.73;1775184;80;21911;-75
2021/01/20 04:55:11;;;;;;;167.93;69.65;;;;;;;-15.40;52.62;101762.66;1774841;80;20927;-74
2021/01/20 04:57:39;;;;;;;186.52;80.25;;;;;;;-15.43;52.59;101762.84;1774889;80;20950;-75
2021/01/20 05:00:08;;;;;;;174.82;77.22;;;;;;;-15.50;52.66;101760.33;1774817;80;21026;-75
2021/01/20 05:02:36;;;;;;;148.82;65.40;;;;;;;-15.55;52.71;101762.55;1774857;80;21010;-75
2021/01/20 05:05:07;;;;;;;181.67;75.47;;;;;;;-15.55;52.68;101770.48;1774797;80;21058;-75
2021/01/20 05:07:36;;;;;;;162.35;67.45;;;;;;;-15.56;52.58;101773.39;1774770;80;21599;-75
2021/01/20 05:10:05;;;;;;;132.65;58.30;;;;;;;-15.57;52.33;101779.57;1774759;80;20943;-74
2021/01/20 05:12:38;;;;;;;164.72;66.05;;;;;;;-15.58;52.28;101787.50;1774813;80;21420;-73
2021/01/20 05:15:10;;;;;;;134.95;55.75;;;;;;;-15.63;52.22;101790.09;1792719;79;20962;-75
2021/01/20 05:17:52;;;;;;;139.12;53.90;;;;;;;-15.71;52.12;101792.55;1774842;80;21163;-76
2021/01/20 05:20:37;;;;;;;125.20;54.45;;;;;;;-15.82;52.21;101805.66;1733178;80;20927;-76
2021/01/20 05:23:08;;;;;;;112.80;52.10;;;;;;;-15.98;52.24;101812.58;1774798;80;21029;-75
2021/01/20 05:25:38;;;;;;;122.22;53.95;;;;;;;-16.12;52.52;101812.03;1774750;80;20951;-74
2021/01/20 05:28:18;;;;;;;119.55;55.15;;;;;;;-16.19;52.72;101815.77;1774809;80;21006;-74
2021/01/20 05:30:53;;;;;;;170.90;70.47;;;;;;;-16.19;52.72;101808.23;1795435;78;20982;-74
2021/01/20 05:33:37;;;;;;;148.40;60.83;;;;;;;-16.12;52.93;101805.75;1818334;78;21396;-74
2021/01/20 05:36:14;;;;;;;166.00;67.27;;;;;;;-16.08;52.86;101810.22;1727496;81;21050;-75
2021/01/20 05:38:50;;;;;;;163.40;72.17;;;;;;;-16.16;53.06;101802.55;1757530;80;20982;-74
2021/01/20 05:41:29;;;;;;;169.70;75.25;;;;;;;-16.14;53.50;101804.78;1752356;80;20923;-75
2021/01/20 05:44:12;;;;;;;147.75;66.30;;;;;;;-15.99;53.72;101811.22;1752495;80;21055;-75
2021/01/20 05:46:44;;;;;;;148.68;65.60;;;;;;;-15.84;53.64;101815.13;1752339;80;20950;-77
2021/01/20 05:49:28;;;;;;;183.05;79.95;;;;;;;-15.73;52.98;101821.34;1757657;80;21381;-75
2021/01/20 05:51:56;;;;;;;204.03;87.13;;;;;;;-15.70;52.54;101821.89;1758002;80;20990;-74
2021/01/20 05:54:36;;;;;;;191.55;84.92;;;;;;;-15.72;52.31;101820.95;1757876;80;21344;-74
2021/01/20 05:57:15;;;;;;;205.57;83.62;;;;;;;-15.74;52.31;101820.86;1752447;80;21495;-73
2021/01/20 05:59:45;;;;;;;207.75;80.53;;;;;;;-15.74;52.22;101820.86;1757589;80;21524;-74
2021/01/20 06:02:14;;;;;;;189.10;77.82;;;;;;;-15.76;52.22;101828.69;1757460;80;20962;-75
2021/01/20 06:04:43;;;;;;;163.22;65.87;;;;;;;-15.79;52.24;101832.23;1752180;80;20950;-75
2021/01/20 06:07:13;;;;;;;142.82;58.35;;;;;;;-15.79;52.26;101834.75;1752375;80;20951;-74
2021/01/20 06:09:44;;;;;;;137.60;62.80;;;;;;;-15.77;52.30;101837.37;1757493;80;21160;-75
2021/01/20 06:12:14;;;;;;;138.00;62.73;;;;;;;-15.76;52.36;101842.52;1753334;80;20955;-76
2021/01/20 06:14:44;;;;;;;132.60;61.95;;;;;;;-15.69;52.31;101847.52;1786173;80;20959;-74
2021/01/20 06:17:19;;;;;;;140.03;61.48;;;;;;;-15.63;52.30;101840.36;1757481;80;20955;-75
2021/01/20 06:19:50;;;;;;;182.05;81.35;;;;;;;-15.53;52.33;101848.99;1757792;80;21010;-75
2021/01/20 06:22:18;;;;;;;189.90;83.58;;;;;;;-15.47;52.38;101841.86;1752289;80;21725;-77
2021/01/20 06:24:49;;;;;;;167.68;74.62;;;;;;;-15.49;52.51;101841.28;1757295;80;21021;-76
2021/01/20 06:27:31;;;;;;;170.53;77.47;;;;;;;-15.46;52.91;101838.95;1752395;80;21432;-74
2021/01/20 06:30:13;;;;;;;167.70;69.67;;;;;;;-15.36;53.35;101840.04;1753000;80;21401;-74
2021/01/20 06:32:46;;;;;;;172.00;75.05;;;;;;;-15.15;53.09;101847.20;1744559;80;20959;-75
2021/01/20 06:35:18;;;;;;;177.65;80.28;;;;;;;-15.06;52.52;101836.06;1749937;80;21170;-75
2021/01/20 06:37:48;;;;;;;221.50;104.00;;;;;;;-14.99;52.41;101838.58;1744370;80;20987;-75
2021/01/20 06:40:24;;;;;;;202.05;89.52;;;;;;;-14.94;52.44;101836.36;1749919;80;20983;-76
2021/01/20 06:42:52;;;;;;;218.15;100.00;;;;;;;-14.87;52.40;101844.40;1787394;78;20963;-74
2021/01/20 06:45:24;;;;;;;215.62;109.83;;;;;;;-14.82;52.46;101839.25;1719851;82;20991;-74
2021/01/20 06:48:03;;;;;;;192.10;84.80;;;;;;;-14.77;52.57;101835.77;1819269;78;21369;-75
2021/01/20 06:50:59;;;;;;;187.90;88.70;;;;;;;-14.68;52.71;101843.87;1719745;82;20963;-73
2021/01/20 06:53:27;;;;;;;207.75;98.17;;;;;;;-14.57;52.88;101843.68;1787298;78;21467;-72
2021/01/20 06:55:55;;;;;;;298.35;161.20;;;;;;;-14.43;53.16;101839.05;1719723;82;21498;-74
2021/01/20 06:58:26;;;;;;;254.63;119.93;;;;;;;-14.38;53.35;101840.22;1787389;78;20942;-74
2021/01/20 07:01:05;;;;;;;271.23;139.75;;;;;;;-14.41;53.69;101842.13;1787863;78;22158;-90
2021/01/20 07:03:49;;;;;;;257.02;125.12;;;;;;;-14.36;54.08;101844.93;1722352;82;21102;-85
2021/01/20 07:06:41;;;;;;;231.15;115.25;;;;;;;-14.23;54.39;101844.89;1822809;77;20991;-86
2021/01/20 07:09:11;;;;;;;247.82;120.75;;;;;;;-14.05;54.60;101836.33;1723198;80;21065;-85
2021/01/20 07:12:05;;;;;;;239.85;120.77;;;;;;;-13.86;54.71;101837.39;1765901;77;20899;-87
2021/01/20 07:14:34;;;;;;;;;;;;;;;-13.67;54.72;101841.84;1793922;78;21199;-84
2021/01/20 07:17:05;;;;;;;265.90;135.88;;;;;;;-13.46;54.97;101846.86;1789124;78;20181;-85
2021/01/20 07:19:38;;;;;;;244.50;129.85;;;;;;;-13.29;54.89;101849.45;1676640;82;21401;-86
2021/01/20 07:22:17;;;;;;;227.13;118.33;;;;;;;-13.13;54.95;101853.70;1789257;78;21168;-89
2021/01/20 07:24:55;;;;;;;174.70;90.72;;;;;;;-12.94;54.91;101847.23;1722814;82;20963;-87
2021/01/20 07:27:25;;;;;;;166.97;88.40;;;;;;;-12.72;55.01;101844.59;1775172;78;20969;-89
2021/01/20 07:30:01;;;;;;;198.32;100.40;;;;;;;-12.50;55.16;101850.81;1750803;82;21464;-87
2021/01/20 07:32:49;;;;;;;172.17;86.78;;;;;;;-12.29;55.16;101858.27;1733372;80;21058;-88
2021/01/20 07:35:25;;;;;;;198.97;104.15;;;;;;;-12.09;55.12;101851.73;1755575;80;20950;-83
2021/01/20 07:38:10;;;;;;;159.32;84.87;;;;;;;-11.90;55.06;101856.05;1756764;80;20966;-87
2021/01/20 07:40:47;;;;;;;169.68;85.77;;;;;;;-11.71;55.00;101863.77;1783059;80;21036;-85
2021/01/20 07:43:30;;;;;;;156.85;79.92;;;;;;;-11.56;54.97;101873.80;1670634;83;21066;-86
2021/01/20 07:46:23;;;;;;;155.00;82.78;;;;;;;-11.44;55.14;101876.05;1773518;80;20950;-89
2021/01/20 08:42:26;;;;;;;47.50;27.15;;;;;;;-10.48;56.94;101878.52;1784265;80;22661;-82
2021/01/20 08:45:26;;;;;;;49.58;26.42;;;;;;;-10.09;56.23;101881.47;1847678;76;23404;-83
2021/01/20 08:47:56;;;;;;;50.92;25.10;;;;;;;-9.93;55.69;101890.25;1783143;79;20966;-84
2021/01/20 08:50:38;;;;;;;43.48;24.57;;;;;;;-9.78;55.04;101891.70;1786060;79;21269;-83
2021/01/20 08:53:25;;;;;;;45.35;26.25;;;;;;;-9.65;54.71;101894.86;1786295;79;21010;-82
2021/01/20 08:55:55;;;;;;;54.60;27.27;;;;;;;-9.48;54.26;101899.77;1786163;79;20994;-83
2021/01/20 08:58:30;;;;;;;42.83;23.40;;;;;;;-9.32;53.98;101901.28;1786430;79;20970;-79
2021/01/20 09:01:09;;;;;;;39.50;19.37;;;;;;;-9.19;53.30;101904.80;1786541;79;20943;-87
2021/01/20 09:03:39;;;;;;;47.03;21.93;;;;;;;-9.16;53.07;101904.91;1808881;78;21444;-85
2021/01/20 09:06:16;;;;;;;42.65;22.13;;;;;;;-9.06;52.74;101911.25;1786492;79;21479;-86
2021/01/20 09:08:53;;;;;;;;;;;;;;;-9.03;52.36;101905.88;1789170;79;20962;-83
2021/01/20 09:11:33;;;;;;;37.70;18.85;;;;;;;-8.98;51.90;101909.49;1786158;79;20168;-83
2021/01/20 09:14:01;;;;;;;35.28;18.92;;;;;;;-9.02;51.54;101907.63;1786792;79;21494;-87
2021/01/20 09:16:30;;;;;;;34.53;17.70;;;;;;;-9.06;51.27;101907.45;1760964;79;21299;-84
2021/01/20 09:19:01;;;;;;;35.95;18.80;;;;;;;-9.15;51.30;101904.53;1818028;78;21004;-85
2021/01/20 09:21:30;;;;;;;35.48;19.30;;;;;;;-9.22;51.33;101903.41;1786329;79;20950;-84
2021/01/20 09:24:15;;;;;;;;;;;;;;;;;;;;;
2021/01/20 09:26:49;;;;;;;39.92;20.35;;;;;;;-9.23;52.20;101904.20;1827496;77;22797;-84
2021/01/20 09:29:27;;;;;;;34.00;19.17;;;;;;;-9.17;51.87;101910.81;1755156;80;20959;-84
2021/01/20 09:31:53;;;;;;;32.95;17.45;;;;;;;-9.13;51.88;101912.68;1754691;80;21753;-82
2021/01/20 09:34:21;;;;;;;34.00;19.25;;;;;;;-9.10;52.02;101910.25;1754710;80;20966;-82
2021/01/20 09:39:43;;;;;;;27.77;15.60;;;;;;;-8.91;51.76;101915.69;1820207;77;22881;-87
2021/01/20 09:42:16;;;;;;;32.35;17.27;;;;;;;-8.89;51.34;101908.11;1728886;81;21476;-84
2021/01/20 09:44:45;;;;;;;33.92;18.77;;;;;;;-8.87;51.29;101912.47;1738013;81;21503;-82
2021/01/20 09:47:13;;;;;;;30.12;17.52;;;;;;;-8.85;51.13;101909.56;1728852;81;20991;-86
2021/01/20 09:49:45;;;;;;;32.58;16.45;;;;;;;-8.83;51.12;101902.00;1766556;81;21454;-83
2021/01/20 09:52:17;;;;;;;34.95;17.70;;;;;;;-8.83;50.83;101902.87;1737285;81;20950;-84
2021/01/20 09:54:47;;;;;;;31.52;17.00;;;;;;;-8.79;50.86;101906.41;1756759;81;21069;-84
2021/01/20 09:57:15;;;;;;;30.08;16.10;;;;;;;-8.76;50.51;101907.41;1738004;81;21092;-85
2021/01/20 09:59:43;;;;;;;30.85;15.65;;;;;;;-8.78;50.41;101907.75;1728973;81;20962;-84
2021/01/20 10:02:11;;;;;;;39.50;18.87;;;;;;;-8.81;50.53;101902.52;1738264;81;20978;-84
2021/01/20 10:04:42;;;;;;;30.48;17.30;;;;;;;-8.76;50.67;101903.97;1729207;81;20991;-83
2021/01/20 10:07:10;;;;;;;30.80;16.12;;;;;;;-8.73;50.50;101914.28;1738340;81;20998;-83
2021/01/20 10:09:41;;;;;;;36.33;18.52;;;;;;;-8.78;50.46;101906.86;1728998;81;21241;-81
2021/01/20 10:12:12;;;;;;;32.08;18.48;;;;;;;-8.79;50.77;101910.22;1766670;81;21017;-82
2021/01/20 10:14:41;;;;;;;40.25;19.50;;;;;;;-8.76;50.84;101912.49;1728962;81;21002;-85
2021/01/20 10:17:09;;;;;;;35.25;21.57;;;;;;;-8.71;51.02;101907.97;1738149;81;21502;-85
2021/01/20 10:19:38;;;;;;;34.10;18.62;;;;;;;-8.67;51.13;101909.45;1728737;81;21030;-82
2021/01/20 10:22:06;;;;;;;40.85;19.05;;;;;;;-8.65;51.06;101912.03;1737860;81;21173;-84
2021/01/20 10:24:35;;;;;;;49.33;22.98;;;;;;;-8.65;51.00;101906.53;1728880;81;21027;-83
2021/01/20 10:27:03;;;;;;;39.73;20.35;;;;;;;-8.58;50.89;101900.02;1738349;81;20962;-84
2021/01/20 10:29:32;;;;;;;36.13;19.70;;;;;;;-8.52;50.84;101899.39;1729196;81;21034;-84
2021/01/20 10:32:03;;;;;;;34.80;19.00;;;;;;;-8.49;50.60;101905.48;1737930;81;20978;-87
2021/01/20 10:34:32;;;;;;;43.23;19.75;;;;;;;-8.43;50.64;101903.15;1756667;81;21375;-84
2021/01/20 10:37:01;;;;;;;35.28;17.98;;;;;;;-8.43;50.42;101901.02;1738219;81;21427;-81
2021/01/20 10:39:29;;;;;;;33.92;17.85;;;;;;;-8.44;50.44;101900.56;1718459;82;21015;-82
2021/01/20 10:41:57;;;;;;;31.33;17.17;;;;;;;-8.39;50.14;101900.30;1776529;80;21093;-82
2021/01/20 10:44:25;;;;;;;36.88;20.50;;;;;;;-8.35;50.13;101891.98;1716385;82;21529;-85
2021/01/20 10:46:57;;;;;;;32.93;18.37;;;;;;;-8.27;50.30;101892.25;1783573;79;22130;-82
2021/01/20 10:49:26;;;;;;;37.58;19.12;;;;;;;-8.18;49.98;101896.02;1783346;79;20970;-84
2021/01/20 10:51:57;;;;;;;30.82;17.35;;;;;;;-8.17;49.76;101892.66;1716300;82;20959;-82
2021/01/20 10:54:25;;;;;;;31.35;18.70;;;;;;;-8.24;49.99;101888.16;1722508;82;20959;-84
2021/01/20 10:56:53;;;;;;;35.73;20.27;;;;;;;-8.24;49.91;101892.38;1715651;82;20968;-85
2021/01/20 10:59:21;;;;;;;30.57;17.32;;;;;;;-8.24;49.79;101888.56;1745704;80;21026;-84
2021/01/20 11:01:51;;;;;;;28.80;15.95;;;;;;;-8.26;49.92;101890.19;1745573;80;20983;-83
2021/01/20 11:04:19;;;;;;;33.20;17.80;;;;;;;-8.27;49.99;101885.52;1745703;80;20967;-84
2021/01/20 11:06:47;;;;;;;36.42;19.40;;;;;;;-8.24;50.22;101879.25;1783233;79;21061;-86
2021/01/20 11:09:16;;;;;;;29.10;17.07;;;;;;;-8.23;50.14;101881.38;1783021;79;20911;-80
2021/01/20 11:11:44;;;;;;;29.55;16.67;;;;;;;-8.19;50.16;101884.51;1745814;80;22580;-79
2021/01/20 11:14:12;;;;;;;32.58;16.32;;;;;;;-8.11;49.99;101878.03;1776211;80;21361;-81
2021/01/20 11:16:41;;;;;;;32.23;16.25;;;;;;;-8.00;49.99;101881.83;1745494;80;21579;-81
2021/01/20 11:19:10;;;;;;;32.95;17.75;;;;;;;-7.92;49.62;101888.05;1745958;80;20983;-83
2021/01/20 11:21:39;;;;;;;31.87;16.45;;;;;;;-7.86;49.44;101878.50;1778870;80;20995;-81
2021/01/20 11:24:17;;;;;;;32.05;18.15;;;;;;;-7.80;49.32;101876.56;1718171;82;21168;-80
2021/01/20 11:26:47;;;;;;;39.10;18.02;;;;;;;-7.75;49.30;101886.52;1817163;79;20962;-81
2021/01/20 11:29:17;;;;;;;34.13;20.88;;;;;;;-7.66;49.04;101883.44;1786465;79;20962;-82
2021/01/20 11:31:50;;;;;;;38.95;20.72;;;;;;;-7.56;49.18;101876.55;1719540;80;21091;-80
2021/01/20 11:34:18;;;;;;;35.52;18.90;;;;;;;-7.44;48.87;101874.44;1722935;82;21428;-83
2021/01/20 11:36:46;;;;;;;36.75;18.60;;;;;;;-7.33;49.04;101873.53;1711356;82;21651;-86
2021/01/20 11:39:16;;;;;;;35.63;20.50;;;;;;;-7.23;48.87;101876.81;1814793;79;21349;-78
2021/01/20 11:41:43;;;;;;;35.58;17.48;;;;;;;-7.15;48.64;101886.02;1783083;78;20958;-80
2021/01/20 11:44:12;;;;;;;30.90;18.50;;;;;;;-7.12;48.10;101886.09;1783004;79;20970;-80
2021/01/20 11:46:40;;;;;;;36.28;21.15;;;;;;;-7.21;48.00;101884.11;1783344;79;20998;-80
2021/01/20 11:49:09;;;;;;;48.15;23.40;;;;;;;-7.33;48.04;101874.80;1783033;79;21176;-76
2021/01/20 11:51:38;;;;;;;36.85;20.08;;;;;;;-7.41;48.49;101882.58;1715838;82;21066;-74
2021/01/20 11:54:07;;;;;;;42.40;21.25;;;;;;;-7.52;48.29;101880.53;1722344;82;21357;-74
2021/01/20 11:56:35;;;;;;;31.10;19.32;;;;;;;-7.60;48.28;101882.34;1715875;82;20967;-74
2021/01/20 11:59:03;;;;;;;32.10;18.80;;;;;;;-7.69;48.74;101882.92;1782797;79;20935;-75
2021/01/20 12:01:34;;;;;;;39.40;22.58;;;;;;;-7.65;48.86;101889.83;1745452;80;21158;-74
2021/01/20 12:04:06;;;;;;;33.40;18.90;;;;;;;-7.57;48.72;101891.39;1746843;80;20971;-86
2021/01/20 12:06:35;;;;;;;32.48;19.20;;;;;;;-7.49;48.34;101886.16;1718747;82;21030;-88
2021/01/20 12:09:06;;;;;;;42.38;20.30;;;;;;;-7.51;48.41;101888.65;1786792;78;20975;-88
2021/01/20 12:11:35;;;;;;;45.70;22.20;;;;;;;-7.52;48.42;101886.89;1786078;79;20911;-86
2021/01/20 12:14:03;;;;;;;39.78;23.42;;;;;;;-7.39;48.55;101894.97;1786862;79;21151;-87
2021/01/20 12:16:33;;;;;;;39.33;21.73;;;;;;;-7.26;48.24;101889.89;1718765;82;21597;-86